Latest Weather Observations for Kalgoorlie-Boulder

IDW60801

Issued at 10:02 pm WST Tuesday 9 February 2016 (issued every 30 minutes, with the page automatically refreshed every 10 minutes)

About weather observations | Map of weather stations | Latest weather observations for WA | Other Formats
Station Details ID: 012038 Name: KALGOORLIE-BOULDER AIRPORT Lat: -30.78 Lon: 121.45 Height: 365.3 m
Data from the previous 72 hours. | See also: Recent months at Kalgoorlie-Boulder
Date/Time
WST
Temp
°C
App
Temp
°C
Dew
Point
Rel
Hum
%
Delta-T
°C
Wind Press
QNH
hPa
Press
MSL
hPa
Rain
since 9 am
mm
Dir
 
Spd
km/h
Gust
km/h
Spd
kts
Gust
kts
09/10:00pm 26.9 25.6 6.1 26 11.0 SSE 2 6 1 3 1016.1 - 0.0
09/09:30pm 26.8 26.0 6.5 27 10.8 CALM 0 0 0 0 1016.3 - 0.0
09/09:00pm 28.0 27.4 7.4 27 11.2 CALM 0 0 0 0 1016.1 1014.1 0.0
09/08:30pm 29.3 27.8 5.0 21 12.8 ESE 2 6 1 3 1015.9 - 0.0
09/08:00pm 29.8 27.2 6.2 22 12.7 ESE 9 11 5 6 1015.8 - 0.0
09/07:30pm 30.7 28.7 7.0 22 13.0 ESE 7 9 4 5 1015.6 - 0.0
09/07:00pm 32.4 30.0 5.3 18 14.6 E 7 9 4 5 1015.3 - 0.0
09/06:30pm 33.6 30.0 2.9 14 16.0 E 11 13 6 7 1015.2 - 0.0
09/06:00pm 34.7 30.6 2.5 13 16.8 ESE 13 19 7 10 1015.2 1013.1 0.0
09/05:30pm 35.4 31.7 2.2 12 17.3 E 11 15 6 8 1015.1 - 0.0
09/05:00pm 35.9 32.2 0.1 10 18.1 E 9 15 5 8 1015.1 - 0.0
09/04:30pm 36.6 34.3 2.8 12 17.9 ESE 4 11 2 6 1015.2 - 0.0
09/04:00pm 36.3 32.1 -0.6 9 18.5 ENE 11 17 6 9 1015.2 - 0.0
09/03:30pm 36.6 31.8 -2.8 8 19.1 SW 13 24 7 13 1015.5 - 0.0
09/03:00pm 36.1 33.2 2.7 12 17.6 W 7 11 4 6 1015.8 1013.7 0.0
09/02:30pm 36.3 33.4 2.4 12 17.8 SW 7 11 4 6 1016.0 - 0.0
09/02:00pm 35.5 32.8 3.9 14 16.9 N 7 13 4 7 1016.4 - 0.0
09/01:30pm 35.0 31.2 -0.7 10 17.7 S 9 13 5 7 1016.7 - 0.0
09/01:00pm 34.3 31.3 0.5 11 17.0 SSW 6 9 3 5 1017.2 - 0.0
09/12:30pm 34.2 31.7 4.9 16 15.8 NE 7 13 4 7 1017.6 - 0.0
09/12:00pm 33.2 30.0 3.1 15 15.7 ENE 9 19 5 10 1018.0 1015.9 0.0
09/11:30am 32.5 29.8 5.4 18 14.6 SE 9 15 5 8 1018.3 - 0.0
09/11:00am 32.2 29.5 5.5 18 14.4 ENE 9 17 5 9 1018.7 - 0.0
09/10:30am 31.8 29.7 8.4 23 13.2 N 9 15 5 8 1019.1 - 0.0
09/10:00am 29.9 27.5 8.7 26 11.9 NNE 11 17 6 9 1019.5 - 0.0
09/09:30am 28.8 26.7 8.2 27 11.4 NNE 9 15 5 8 1019.8 - 0.0
09/09:00am 27.5 25.3 9.3 32 10.2 NE 11 15 6 8 1019.9 1017.9 0.0
09/08:30am 26.1 24.8 11.1 39 8.6 NE 9 13 5 7 1020.1 - 0.0
09/08:00am 24.3 23.0 11.3 44 7.4 NE 9 15 5 8 1020.2 - 0.0
09/07:30am 23.0 21.4 11.4 48 6.6 NE 11 15 6 8 1020.2 - 0.0
09/07:00am 22.0 19.5 11.1 50 6.1 NE 15 19 8 10 1020.0 - 0.0
09/06:30am 21.6 19.4 10.9 50 6.0 ENE 13 17 7 9 1019.8 - 0.0
09/06:00am 20.2 18.7 10.6 54 5.3 E 9 13 5 7 1019.6 1017.6 0.0
09/05:30am 19.2 17.4 9.3 52 5.3 SSE 9 11 5 6 1019.4 - 0.0
09/05:00am 20.8 18.4 8.6 45 6.5 ENE 11 15 6 8 1019.0 - 0.0
09/04:30am 21.2 18.7 8.2 43 6.9 E 11 15 6 8 1018.9 - 0.0
09/04:00am 22.2 18.2 6.6 36 8.1 ENE 17 22 9 12 1018.7 - 0.0
09/03:30am 22.6 18.5 6.4 35 8.4 ENE 17 24 9 13 1018.4 - 0.0
09/03:00am 23.1 19.7 6.1 33 8.8 ENE 13 17 7 9 1018.5 1016.5 0.0
09/02:30am 23.2 20.7 6.5 34 8.7 NE 9 13 5 7 1018.5 - 0.0
09/02:00am 23.3 21.6 7.7 36 8.3 NNE 6 9 3 5 1018.5 - 0.0
09/01:30am 24.1 21.4 5.7 30 9.5 NE 9 17 5 9 1018.5 - 0.0
09/01:00am 24.6 21.3 4.8 27 10.1 NE 11 17 6 9 1018.7 - 0.0
09/12:30am 25.1 21.4 4.7 26 10.4 NE 13 17 7 9 1019.0 - 0.0
09/12:00am 26.0 22.2 4.1 24 11.1 ENE 13 22 7 12 1019.1 1017.1 0.0
 
Date/Time
WST
Temp
°C
App
Temp
°C
Dew
Point
Rel
Hum
%
Delta-T
°C
Wind Press
QNH
hPa
Press
MSL
hPa
Rain
since 9 am
mm
Dir
 
Spd
km/h
Gust
km/h
Spd
kts
Gust
kts
08/11:30pm 26.1 22.4 4.6 25 11.0 ENE 13 19 7 10 1019.2 - 0.0
08/11:00pm 26.9 22.3 3.6 22 11.8 ENE 17 28 9 15 1019.2 - 0.0
08/10:30pm 28.1 22.6 2.1 18 12.9 ENE 20 32 11 17 1019.1 - 0.0
08/10:00pm 28.6 22.6 1.3 17 13.4 ENE 22 35 12 19 1019.1 - 0.0
08/09:30pm 28.9 23.3 1.3 17 13.6 ENE 20 28 11 15 1018.9 - 0.0
08/09:00pm 26.1 22.3 3.7 23 11.3 ESE 13 17 7 9 1018.9 1016.9 0.0
08/08:30pm 26.7 23.2 3.5 22 11.7 SE 11 13 6 7 1018.6 - 0.0
08/08:00pm 27.2 23.8 2.1 19 12.4 SSE 9 9 5 5 1018.4 - 0.0
08/07:30pm 29.3 26.2 1.4 16 13.8 NE 7 9 4 5 1018.0 - 0.0
08/07:00pm 30.6 26.8 -0.4 13 15.0 NE 9 15 5 8 1017.8 - 0.0
08/06:30pm 32.0 27.4 -4.3 9 16.6 NE 11 19 6 10 1017.4 - 0.0
08/06:00pm 32.6 27.8 -2.9 10 16.7 E 13 19 7 10 1017.3 1015.3 0.0
08/05:30pm 33.2 27.4 -4.8 8 17.4 E 17 22 9 12 1017.2 - 0.0
08/05:00pm 33.5 27.9 -2.7 9 17.2 ESE 17 24 9 13 1017.2 - 0.0
08/04:30pm 33.8 29.4 0.1 11 16.8 E 13 22 7 12 1017.3 - 0.0
08/04:00pm 33.7 28.8 -3.7 9 17.5 E 13 19 7 10 1017.6 - 0.0
08/03:30pm 33.2 28.0 -6.0 8 17.6 E 13 20 7 11 1017.8 - 0.0
08/03:00pm 33.6 28.4 -2.4 10 17.2 ESE 15 26 8 14 1018.1 1016.0 0.0
08/02:30pm 33.4 28.2 -3.1 9 17.2 ESE 15 22 8 12 1018.5 - 0.0
08/02:00pm 32.8 27.5 -3.4 9 16.9 ENE 15 20 8 11 1018.8 - 0.0
08/01:30pm 32.1 26.4 -3.5 10 16.5 ENE 17 24 9 13 1019.3 - 0.0
08/01:00pm 32.0 26.7 -0.3 12 15.8 ENE 17 24 9 13 1019.6 - 0.0
08/12:30pm 31.5 27.3 1.8 15 15.0 ENE 13 24 7 13 1020.0 - 0.0
08/12:00pm 30.2 25.2 1.1 15 14.4 ENE 17 24 9 13 1020.6 1018.5 0.0
08/11:30am 30.0 25.2 2.5 17 13.9 NE 17 24 9 13 1020.9 - 0.0
08/11:00am 29.6 25.0 3.5 19 13.4 NE 17 22 9 12 1021.3 - 0.0
08/10:30am 28.8 25.1 6.4 24 12.1 E 15 22 8 12 1021.7 - 0.0
08/10:00am 27.4 22.4 4.8 23 11.7 ENE 20 28 11 15 1022.1 - 0.0
08/09:30am 26.6 23.3 9.6 34 9.5 ENE 17 24 9 13 1022.2 - 0.0
08/09:00am 25.5 21.8 10.0 37 8.7 E 20 26 11 14 1022.4 1020.4 0.0
08/08:30am 24.3 21.9 11.5 44 7.3 ENE 15 20 8 11 1022.5 - 0.0
08/08:00am 23.2 20.9 11.6 48 6.6 E 15 24 8 13 1022.6 - 0.0
08/07:30am 22.0 19.2 11.4 51 6.0 E 17 24 9 13 1022.5 - 0.0
08/07:00am 21.0 18.3 11.6 55 5.3 E 17 24 9 13 1022.4 - 0.0
08/06:30am 19.9 17.0 11.1 57 4.9 E 17 22 9 12 1022.2 - 0.0
08/06:00am 19.4 15.9 10.9 58 4.7 E 20 30 11 16 1021.9 1019.9 0.0
08/05:30am 18.3 15.9 10.2 59 4.4 ESE 13 22 7 12 1021.6 - 0.0
08/05:00am 19.7 16.6 10.4 55 5.1 E 17 28 9 15 1021.3 - 0.0
08/04:30am 20.0 16.8 10.1 53 5.4 E 17 24 9 13 1021.3 - 0.0
08/04:00am 20.5 17.6 9.6 49 5.9 E 15 28 8 15 1021.1 - 0.0
08/03:30am 21.0 18.0 9.1 46 6.4 E 15 24 8 13 1020.9 - 0.0
08/03:00am 20.7 17.5 7.0 41 7.1 SE 13 17 7 9 1020.7 1018.6 0.0
08/02:30am 22.5 18.9 8.3 40 7.6 E 17 24 9 13 1020.7 - 0.0
08/02:00am 23.3 18.8 6.9 34 8.6 E 20 30 11 16 1020.6 - 0.0
08/01:30am 23.6 19.0 5.7 31 9.2 E 19 30 10 16 1020.6 - 0.0
08/01:00am 24.4 19.3 2.8 24 10.6 E 19 28 10 15 1020.8 - 0.0
08/12:30am 25.4 19.9 1.9 21 11.4 E 20 30 11 16 1020.8 - 0.0
08/12:00am 26.1 19.7 0.8 19 12.1 E 24 35 13 19 1020.9 1018.9 0.0
 
Date/Time
WST
Temp
°C
App
Temp
°C
Dew
Point
Rel
Hum
%
Delta-T
°C
Wind Press
QNH
hPa
Press
MSL
hPa
Rain
since 9 am
mm
Dir
 
Spd
km/h
Gust
km/h
Spd
kts
Gust
kts
07/11:30pm 26.7 20.2 0.2 17 12.6 ENE 24 43 13 23 1020.8 - 0.0
07/11:00pm 27.2 20.1 -1.2 15 13.2 E 26 37 14 20 1021.0 - 0.0
07/10:30pm 27.5 21.1 -1.8 14 13.5 E 22 32 12 17 1020.9 - 0.0
07/10:00pm 28.3 21.0 -2.9 13 14.2 E 26 37 14 20 1020.7 - 0.0
07/09:30pm 28.2 21.7 -2.2 13 14.0 E 22 33 12 18 1020.6 - 0.0
07/09:00pm 27.4 21.5 -2.5 14 13.6 ESE 19 24 10 13 1020.1 1018.1 0.0
07/08:30pm 26.8 21.9 -0.4 17 12.8 ESE 15 19 8 10 1019.6 - 0.0
07/08:00pm 27.4 22.1 -0.6 16 13.2 ESE 17 20 9 11 1019.1 - 0.0
07/07:30pm 28.0 22.6 -1.3 14 13.7 ESE 17 20 9 11 1018.7 - 0.0
07/07:00pm 29.6 23.6 -3.2 11 15.0 ESE 19 24 10 13 1018.4 - 0.0
07/06:30pm 31.2 24.8 -6.4 8 16.5 ESE 19 22 10 12 1018.0 - 0.0
07/06:00pm 32.4 24.4 -10.1 6 17.7 ESE 26 33 14 18 1017.6 1015.5 0.0
07/05:30pm 33.1 25.5 -5.8 8 17.5 ESE 26 37 14 20 1017.1 - 0.0
07/05:00pm 33.5 26.3 -4.9 8 17.6 SE 24 33 13 18 1016.9 - 0.0
07/04:30pm 33.6 26.9 -1.4 10 17.0 SE 24 35 13 19 1016.9 - 0.0
07/04:00pm 33.9 28.0 -1.0 11 17.1 SE 20 33 11 18 1016.9 - 0.0
07/03:30pm 33.7 28.1 -2.6 9 17.3 E 17 26 9 14 1016.9 - 0.0
07/03:00pm 33.7 27.4 -1.1 11 17.0 ESE 22 33 12 18 1017.0 1015.0 0.0
07/02:30pm 33.6 27.3 1.7 13 16.3 E 24 28 13 15 1017.3 - 0.0
07/02:00pm 33.1 27.9 2.5 14 15.8 ESE 19 32 10 17 1017.7 - 0.0
07/01:30pm 32.8 28.0 5.4 18 14.8 E 20 33 11 18 1018.0 - 0.0
07/01:00pm 32.1 27.1 4.6 17 14.6 E 20 32 11 17 1018.3 - 0.0
07/12:30pm 31.7 27.2 7.0 21 13.6 ESE 20 30 11 16 1018.8 - 0.0
07/12:00pm 30.7 26.4 7.2 23 12.9 E 19 33 10 18 1019.2 1017.2 0.0
07/11:30am 30.3 26.7 6.8 23 12.8 ENE 15 24 8 13 1019.4 - 0.0
07/11:00am 29.6 25.8 7.6 25 12.1 ENE 17 28 9 15 1019.6 - 0.0
07/10:30am 29.0 26.5 9.8 30 10.9 E 13 22 7 12 1020.0 - 0.0
07/10:00am 28.0 25.3 10.3 33 10.1 E 15 22 8 12 1020.5 - 0.0
07/09:30am 26.1 23.4 10.4 37 8.9 NE 15 20 8 11 1020.7 - 0.0
07/09:00am 25.5 23.9 11.6 41 8.0 E 11 17 6 9 1020.8 1018.8 0.0
07/08:30am 24.4 22.6 12.1 46 7.1 E 13 19 7 10 1020.6 - 0.0
07/08:00am 23.2 21.4 12.1 49 6.4 E 13 20 7 11 1020.6 - 0.0
07/07:30am 22.2 19.5 11.6 51 6.0 E 17 22 9 12 1020.3 - 0.0
07/07:00am 21.3 18.5 11.3 53 5.6 ESE 17 20 9 11 1020.1 - 0.0
07/06:30am 20.9 18.5 11.3 54 5.4 ESE 15 19 8 10 1019.8 - 0.0
07/06:00am 20.3 17.8 11.2 56 5.1 E 15 20 8 11 1019.4 1017.4 0.0
07/05:30am 19.9 17.0 10.9 56 5.0 E 17 28 9 15 1019.0 - 0.0
07/05:00am 18.9 16.1 10.1 56 4.8 ESE 15 19 8 10 1018.6 - 0.0
07/04:30am 19.9 17.0 9.8 52 5.5 ESE 15 20 8 11 1018.3 - 0.0
07/04:00am 19.8 16.7 8.9 49 5.8 ESE 15 19 8 10 1018.1 - 0.0
07/03:30am 20.4 17.3 9.0 48 6.1 ESE 15 17 8 9 1018.0 - 0.0
07/03:00am 21.5 18.3 8.6 43 6.9 ESE 15 20 8 11 1017.8 1015.7 0.0
07/02:30am 22.0 18.8 8.4 41 7.3 ESE 15 20 8 11 1017.6 - 0.0
07/02:00am 23.4 20.0 7.6 36 8.4 E 15 22 8 12 1017.3 - 0.0
07/01:30am 24.5 19.9 6.4 31 9.5 E 20 32 11 17 1017.1 - 0.0
07/01:00am 24.6 20.0 5.7 29 9.8 E 19 30 10 16 1017.0 - 0.0
07/12:30am 24.6 19.8 5.4 29 9.9 ESE 20 28 11 15 1017.0 - 0.0
07/12:00am 26.2 21.9 5.2 26 10.9 ENE 17 28 9 15 1016.7 1014.7 0.0
 
Date/Time
WST
Temp
°C
App
Temp
°C
Dew
Point
Rel
Hum
%
Delta-T
°C
Wind Press
QNH
hPa
Press
MSL
hPa
Rain
since 9 am
mm
Dir
 
Spd
km/h
Gust
km/h
Spd
kts
Gust
kts
06/11:30pm 27.1 22.0 4.0 22 11.8 ENE 20 32 11 17 1016.7 - 0.0
06/11:00pm 27.2 22.4 2.8 20 12.2 ENE 17 26 9 14 1016.7 - 0.0
06/10:30pm 28.0 22.7 1.6 18 13.0 ENE 19 26 10 14 1016.6 - 0.0

Other Formats:

Comma delimited format used in spreadsheet applications
http://www.bom.gov.au/fwo/IDW60801/IDW60801.94637.axf

JavaScript Object Notation format (JSON) in row-major order
http://www.bom.gov.au/fwo/IDW60801/IDW60801.94637.json